Acton, CA

9:40 AM PDT on September 19, 2014 (GMT -0700)
Bridle Path | Change Station
CLOSE
Current Station
Personal Weather Station
Location: Acton, CA
Elevation: 2920 ft
Nearby Weather Stations

Elev 2920 ft 34.48 °N, 118.17 °W | Updated 28 seconds ago

Clear
Clear
66.4 °F
Feels Like 66.4 °F
N
0.0
Wind Variable Wind from WNW
Gusts 1.0 mph

Today
High -- | Low -- °F
--% Chance of Precip.
Yesterday
High -- | Low -- °F
Precip. -- in
6:38 AM 6:53 PM
Waning Crescent, 18% visible
Pressure 29.87 in
Visibility 10.0 miles
Clouds Clear
Dew Point 54 °F
Humidity 65%
Rainfall 0.00 in
Snow Depth 1 in , 0 in , 0 in
UV 2 out of 12
Pollen 6.90 out of 12
Ozone Good
PM2.5 Good
Flu Activity Not available.
METAR KPMD 191553Z AUTO 28007KT 10SM CLR 22/12 A2994 RMK AO2 SLP115 T02170122

More Conditions Fewer Conditions

Pressure 29.87 in
Visibility 10.0 miles
Clouds Clear
Dew Point 54 °F
Humidity 65%
Rainfall 0.00 in
Snow Depth 1 in , 0 in , 0 in
UV 2 out of 12
Pollen 6.90 out of 12
Ozone Good
PM2.5 Good
Flu Activity Not available.
METAR KPMD 191553Z AUTO 28007KT 10SM CLR 22/12 A2994 RMK AO2 SLP115 T02170122

More Conditions Fewer Conditions

10-Day Weather Forecast

Almanac

Astronomy

Sep. 19, 2014 Rise Set
Actual Time 6:38 AM PDT 6:53 PM PDT
Civil Twilight 6:13 AM PDT 7:18 PM PDT
Nautical Twilight 5:44 AM PDT 7:48 PM PDT
Astronomical Twilight 5:14 AM PDT 8:17 PM PDT
Moon 2:36 AM PDT 4:17 PM PDT
Length of Visible Light 13h 05m
Length of Day
12h 14m
Tomorrow will be 2m 9s shorter.
Waning Crescent, 18% of the Moon is Illuminated
Today
Waning Crescent
Sep 24
New
Oct 1
First Quarter
Oct 8
Full
Oct 15
Last Quarter

Today's Extremes

State Highs State Lows

Community

WunderPhotos

Upload Photos

1,754,650 photos uploaded!

WunderBlogs® & News

By Dr. Jeff Masters
Director of Meteorology, Weather Underground
By Kari Strenfel
Meteorologist, Weather Underground
By Christopher C. Burt
Weather Historian, Weather Underground
September 19, 2014
September 19, 2014
September 19, 2014

Nearby

Air Quality

  Air Quality AQ Index Pollutant
Yesterday Good
PM10
Yesterday Good
OZONE
Current Good
PM2.5
Current Good
OZONE
Friday Good
PM10
Friday Good
OZONE
Friday Good
CO
Friday Good
NO2

Snow Depth

Station Depth Elevation
Spratt Creek 1 in 6200 ft
Leavitt Meadows 0 in 7200 ft
Dismal Swamp 0 in 7000 ft
Hagan's Meadow 0 in 8000 ft
Tahoe City Cross 0 in 6750 ft

Earthquake Activity

City Distance Mag. Time & Date
Aguanga, California 107 miles 2.5 1:38 AM PDT
2014-09-19
Corcoran, California 137 miles 3.0 3:59 PM PDT
2014-09-18
Minimum magnitude displayed is 2.5.

Coastal Water Temperatures

Place Temperature
No Stations Reporting

Nearby Weather Stations